createdAt,value
2023-11-23T00:00:16.859Z,97803.06
2023-11-23T00:01:19.081Z,97796.28
2023-11-23T00:02:20.920Z,97794.53
2023-11-23T00:03:22.834Z,97795.09
2023-11-23T00:04:24.767Z,97795.22
2023-11-23T00:05:27.106Z,97799.16
2023-11-23T00:06:28.865Z,97796.88
2023-11-23T00:07:32.578Z,97804.88
2023-11-23T00:08:35.634Z,97802.97
2023-11-23T00:09:37.522Z,97805.97
2023-11-23T00:10:39.340Z,97808.00
2023-11-23T00:11:41.499Z,97808.38
2023-11-23T00:12:43.441Z,97804.41
2023-11-23T00:13:45.297Z,97804.81
2023-11-23T00:14:47.049Z,97795.00
2023-11-23T00:15:48.889Z,97798.94
2023-11-23T00:16:50.705Z,97790.09
2023-11-23T00:17:53.711Z,97792.38
2023-11-23T00:18:55.742Z,97794.97
2023-11-23T00:19:57.945Z,97792.28
2023-11-23T00:20:59.946Z,97795.84
2023-11-23T00:22:02.361Z,97787.91
2023-11-23T00:23:04.080Z,97785.88
2023-11-23T00:24:06.487Z,97790.09
2023-11-23T00:25:13.453Z,97792.53
2023-11-23T00:26:15.369Z,97779.47
2023-11-23T00:27:17.290Z,97782.03
2023-11-23T00:28:20.138Z,97781.38
2023-11-23T00:29:21.987Z,97778.94
2023-11-23T00:30:23.791Z,97773.38
2023-11-23T00:31:25.640Z,97777.63
2023-11-23T00:32:27.432Z,97778.03
2023-11-23T00:33:29.956Z,97780.91
2023-11-23T00:34:31.882Z,97785.28
2023-11-23T00:35:33.653Z,97793.97
2023-11-23T00:36:41.291Z,97790.44
2023-11-23T00:37:43.180Z,97792.59
2023-11-23T00:38:45.162Z,97787.31
2023-11-23T00:39:47.023Z,97787.69
2023-11-23T00:40:48.740Z,97778.69
2023-11-23T00:41:50.706Z,97778.81
2023-11-23T00:42:52.505Z,97778.31
2023-11-23T00:43:54.496Z,97776.22
2023-11-23T00:44:57.372Z,97777.75
2023-11-23T00:45:59.328Z,97775.00
2023-11-23T00:47:01.432Z,97780.03
2023-11-23T00:48:03.850Z,97775.66
2023-11-23T00:49:06.449Z,97773.78
2023-11-23T00:50:08.900Z,97782.88
2023-11-23T00:51:10.791Z,97774.03
2023-11-23T00:52:12.726Z,97774.81
2023-11-23T00:53:14.563Z,97772.38
2023-11-23T00:54:17.305Z,97777.53
2023-11-23T00:55:19.226Z,97774.16
2023-11-23T00:56:21.273Z,97777.03
2023-11-23T00:57:23.123Z,97775.13
2023-11-23T00:58:25.567Z,97777.72
2023-11-23T00:59:27.563Z,97772.53
2023-11-23T01:00:30.599Z,97778.38
2023-11-23T01:01:32.645Z,97779.84
2023-11-23T01:02:35.237Z,97771.97
2023-11-23T01:03:37.479Z,97771.81
2023-11-23T01:04:39.463Z,97776.75
2023-11-23T01:05:45.454Z,97769.81
2023-11-23T01:06:47.469Z,97767.00
2023-11-23T01:07:49.633Z,97751.81
2023-11-23T01:08:51.551Z,97755.31
2023-11-23T01:09:53.398Z,97750.47
2023-11-23T01:10:55.224Z,97753.44
2023-11-23T01:11:58.236Z,97751.81
2023-11-23T01:13:00.363Z,97755.09
2023-11-23T01:14:02.485Z,97751.69
2023-11-23T01:15:05.086Z,97764.63
2023-11-23T01:16:07.454Z,97762.28
2023-11-23T01:17:09.307Z,97754.69
2023-11-23T01:18:11.482Z,97756.47
2023-11-23T01:19:14.095Z,97755.91
2023-11-23T01:20:16.489Z,97758.66
2023-11-23T01:21:18.469Z,97760.53
2023-11-23T01:22:20.419Z,97765.72
2023-11-23T01:23:22.283Z,97769.25
2023-11-23T01:24:24.191Z,97764.63
2023-11-23T01:25:26.091Z,97763.00
2023-11-23T01:26:27.944Z,97769.00
2023-11-23T01:27:29.770Z,97766.25
2023-11-23T01:28:32.413Z,97768.69
2023-11-23T01:29:34.326Z,97768.56
2023-11-23T01:30:36.255Z,97762.72
2023-11-23T01:31:38.194Z,97769.13
2023-11-23T01:32:40.260Z,97762.63
2023-11-23T01:33:42.338Z,97764.22
2023-11-23T01:34:44.244Z,97767.09
2023-11-23T01:35:46.259Z,97760.03
2023-11-23T01:36:48.285Z,97767.34
2023-11-23T01:37:50.674Z,97764.63
2023-11-23T01:38:52.900Z,97767.91
2023-11-23T01:39:54.729Z,97760.53
2023-11-23T01:40:56.922Z,97760.69
2023-11-23T01:41:58.860Z,97754.69
2023-11-23T01:43:07.798Z,97759.84
2023-11-23T01:44:09.626Z,97760.69
2023-11-23T01:45:11.767Z,97763.25
2023-11-23T01:46:14.094Z,97757.25
2023-11-23T01:47:16.778Z,97746.94
2023-11-23T01:48:20.996Z,97756.47
2023-11-23T01:49:24.694Z,97755.53
2023-11-23T01:50:27.110Z,97751.44
2023-11-23T01:51:29.829Z,97755.69
2023-11-23T01:52:32.242Z,97752.28
2023-11-23T01:53:34.316Z,97749.41
2023-11-23T01:54:36.300Z,97749.94
2023-11-23T01:55:38.471Z,97749.00
2023-11-23T01:56:41.604Z,97748.72
2023-11-23T01:57:44.994Z,97741.50
2023-11-23T01:58:46.910Z,97740.38
2023-11-23T01:59:49.062Z,97739.72
2023-11-23T02:00:52.536Z,97746.66
2023-11-23T02:01:55.597Z,97746.66
2023-11-23T02:02:58.080Z,97748.44
2023-11-23T02:04:00.068Z,97750.47
2023-11-23T02:05:05.381Z,97760.28
2023-11-23T02:06:07.910Z,97757.28
2023-11-23T02:07:10.037Z,97748.63
2023-11-23T02:08:12.366Z,97747.69
2023-11-23T02:09:14.543Z,97740.78
2023-11-23T02:10:16.519Z,97742.13
2023-11-23T02:11:18.483Z,97738.38
2023-11-23T02:12:22.100Z,97735.94
2023-11-23T02:13:24.487Z,97726.16
2023-11-23T02:14:26.794Z,97727.50
2023-11-23T02:15:28.811Z,97728.72
2023-11-23T02:16:30.954Z,97730.22
2023-11-23T02:17:32.867Z,97725.34
2023-11-23T02:18:39.128Z,97731.69
2023-11-23T02:19:41.032Z,97723.41
2023-11-23T02:20:46.176Z,97726.38
2023-11-23T02:21:48.091Z,97729.38
2023-11-23T02:22:50.374Z,97726.13
2023-11-23T02:23:52.586Z,97723.91
2023-11-23T02:24:54.416Z,97723.66
2023-11-23T02:25:56.595Z,97723.78
2023-11-23T02:26:58.962Z,97721.34
2023-11-23T02:28:00.825Z,97726.78
2023-11-23T02:29:02.766Z,97732.78
2023-11-23T02:30:07.507Z,97731.56
2023-11-23T02:31:09.519Z,97731.00
2023-11-23T02:32:11.879Z,97744.88
2023-11-23T02:33:15.649Z,97741.34
2023-11-23T02:34:17.583Z,97747.03
2023-11-23T02:35:20.945Z,97741.63
2023-11-23T02:36:23.633Z,97746.78
2023-11-23T02:37:25.465Z,97745.44
2023-11-23T02:38:27.943Z,97754.38
2023-11-23T02:39:30.604Z,97745.25
2023-11-23T02:40:32.545Z,97756.28
2023-11-23T02:41:34.507Z,97755.34
2023-11-23T02:42:36.519Z,97748.00
2023-11-23T02:43:38.401Z,97750.03
2023-11-23T02:44:40.208Z,97754.09
2023-11-23T02:45:43.499Z,97752.72
2023-11-23T02:46:45.465Z,97756.66
2023-11-23T02:47:47.411Z,97763.19
2023-11-23T02:48:49.576Z,97763.84
2023-11-23T02:49:51.547Z,97768.03
2023-11-23T02:50:53.408Z,97766.56
2023-11-23T02:51:55.497Z,97761.28
2023-11-23T02:52:57.418Z,97760.16
2023-11-23T02:53:59.260Z,97762.22
2023-11-23T02:55:01.192Z,97755.69
2023-11-23T02:56:03.135Z,97760.31
2023-11-23T02:57:05.982Z,97754.91
2023-11-23T02:58:07.935Z,97760.50
2023-11-23T02:59:09.888Z,97762.09
2023-11-23T03:00:13.703Z,97758.16
2023-11-23T03:01:15.836Z,97765.47
2023-11-23T03:02:17.793Z,97760.84
2023-11-23T03:03:20.369Z,97765.75
2023-11-23T03:04:22.337Z,97757.72
2023-11-23T03:05:24.374Z,97763.56
2023-11-23T03:06:27.920Z,97764.22
2023-11-23T03:07:29.863Z,97766.53
2023-11-23T03:08:32.328Z,97765.03
2023-11-23T03:09:34.368Z,97767.63
2023-11-23T03:10:36.196Z,97766.69
2023-11-23T03:11:38.036Z,97763.28
2023-11-23T03:12:40.011Z,97761.38
2023-11-23T03:13:42.491Z,97756.47
2023-11-23T03:14:45.288Z,97757.28
2023-11-23T03:15:47.154Z,97759.75
2023-11-23T03:16:49.963Z,97765.19
2023-11-23T03:17:51.956Z,97761.94
2023-11-23T03:18:54.007Z,97764.38
2023-11-23T03:19:56.635Z,97757.16
2023-11-23T03:20:58.727Z,97761.25
2023-11-23T03:22:00.962Z,97761.75
2023-11-23T03:23:02.973Z,97758.13
2023-11-23T03:24:05.204Z,97749.59
2023-11-23T03:25:07.390Z,97749.19
2023-11-23T03:26:09.316Z,97751.09
2023-11-23T03:27:11.146Z,97755.81
2023-11-23T03:28:14.055Z,97752.19
2023-11-23T03:29:16.321Z,97752.31
2023-11-23T03:30:18.724Z,97757.91
2023-11-23T03:31:22.311Z,97769.84
2023-11-23T03:32:26.696Z,97762.75
2023-11-23T03:33:29.160Z,97763.88
2023-11-23T03:34:31.384Z,97762.09
2023-11-23T03:35:33.290Z,97758.69
2023-11-23T03:36:35.154Z,97763.44
2023-11-23T03:37:37.093Z,97753.66
2023-11-23T03:38:39.128Z,97753.28
2023-11-23T03:39:41.425Z,97747.03
2023-11-23T03:40:43.447Z,97761.97
2023-11-23T03:41:45.365Z,97751.16
2023-11-23T03:42:47.211Z,97747.59
2023-11-23T03:43:49.178Z,97757.13
2023-11-23T03:44:51.616Z,97750.06
2023-11-23T03:45:53.900Z,97749.66
2023-11-23T03:46:55.918Z,97754.66
2023-11-23T03:47:59.495Z,97747.59
2023-11-23T03:49:01.575Z,97761.34
2023-11-23T03:50:03.470Z,97765.28
2023-11-23T03:51:05.493Z,97763.22
2023-11-23T03:52:07.400Z,97765.25
2023-11-23T03:53:09.202Z,97765.38
2023-11-23T03:54:11.271Z,97770.94
2023-11-23T03:55:13.392Z,97768.91
2023-11-23T03:56:18.031Z,97767.69
2023-11-23T03:57:20.406Z,97771.75
2023-11-23T03:58:22.270Z,97773.28
2023-11-23T03:59:24.494Z,97773.13
2023-11-23T04:00:29.352Z,97770.00
2023-11-23T04:01:32.620Z,97768.78
2023-11-23T04:02:35.610Z,97771.06
2023-11-23T04:03:40.731Z,97777.22
2023-11-23T04:04:42.750Z,97781.53
2023-11-23T04:05:44.686Z,97772.72
2023-11-23T04:06:47.146Z,97773.53
2023-11-23T04:07:49.138Z,97772.03
2023-11-23T04:08:51.122Z,97768.78
2023-11-23T04:09:53.075Z,97771.50
2023-11-23T04:10:54.882Z,97773.41
2023-11-23T04:11:56.828Z,97770.41
2023-11-23T04:12:58.843Z,97769.47
2023-11-23T04:14:00.735Z,97769.03
2023-11-23T04:15:02.894Z,97765.66
2023-11-23T04:16:04.951Z,97767.94
2023-11-23T04:17:06.770Z,97763.31
2023-11-23T04:18:08.735Z,97762.09
2023-11-23T04:19:10.592Z,97766.31
2023-11-23T04:20:12.613Z,97767.69
2023-11-23T04:21:15.120Z,97765.22
2023-11-23T04:22:18.020Z,97768.25
2023-11-23T04:23:20.007Z,97772.16
2023-11-23T04:24:22.021Z,97772.56
2023-11-23T04:25:23.977Z,97774.19
2023-11-23T04:26:25.857Z,97771.31
2023-11-23T04:27:27.868Z,97776.09
2023-11-23T04:28:30.492Z,97768.34
2023-11-23T04:29:32.444Z,97764.13
2023-11-23T04:30:34.480Z,97765.91
2023-11-23T04:31:36.550Z,97766.03
2023-11-23T04:32:38.395Z,97766.56
2023-11-23T04:33:40.413Z,97764.53
2023-11-23T04:34:42.797Z,97767.91
2023-11-23T04:35:44.763Z,97765.47
2023-11-23T04:36:46.764Z,97776.59
2023-11-23T04:37:48.741Z,97772.41
2023-11-23T04:38:50.725Z,97772.41
2023-11-23T04:39:53.048Z,97773.50
2023-11-23T04:40:54.958Z,97771.47
2023-11-23T04:41:57.432Z,97773.66
2023-11-23T04:42:59.320Z,97776.91
2023-11-23T04:44:01.992Z,97772.28
2023-11-23T04:45:04.667Z,97780.03
2023-11-23T04:46:06.801Z,97790.78
2023-11-23T04:47:08.751Z,97788.34
2023-11-23T04:48:11.117Z,97785.63
2023-11-23T04:49:13.000Z,97778.56
2023-11-23T04:50:14.974Z,97783.44
2023-11-23T04:51:17.745Z,97781.13
2023-11-23T04:52:19.632Z,97775.13
2023-11-23T04:53:21.476Z,97783.03
2023-11-23T04:54:23.353Z,97782.88
2023-11-23T04:55:25.636Z,97784.22
2023-11-23T04:56:27.660Z,97783.84
2023-11-23T04:57:29.450Z,97778.81
2023-11-23T04:58:31.207Z,97773.38
2023-11-23T04:59:33.034Z,97781.81
2023-11-23T05:00:37.173Z,97781.13
2023-11-23T05:01:39.558Z,97782.38
2023-11-23T05:02:44.848Z,97774.75
2023-11-23T05:03:47.955Z,97774.75
2023-11-23T05:04:50.002Z,97776.38
2023-11-23T05:05:51.899Z,97769.47
2023-11-23T05:06:53.848Z,97767.81
2023-11-23T05:07:55.626Z,97768.09
2023-11-23T05:08:57.493Z,97769.88
2023-11-23T05:09:59.250Z,97777.78
2023-11-23T05:11:01.196Z,97787.00
2023-11-23T05:12:03.132Z,97805.31
2023-11-23T05:13:05.308Z,97801.69
2023-11-23T05:14:08.557Z,97808.63
2023-11-23T05:15:11.505Z,97808.31
2023-11-23T05:16:13.277Z,97810.09
2023-11-23T05:17:14.983Z,97800.72
2023-11-23T05:18:17.349Z,97799.91
2023-11-23T05:19:31.737Z,97801.69
2023-11-23T05:20:41.863Z,97791.09
2023-11-23T05:21:43.668Z,97784.84
2023-11-23T05:22:47.393Z,97780.34
2023-11-23T05:23:49.327Z,97779.38
2023-11-23T05:24:51.136Z,97781.56
2023-11-23T05:25:53.390Z,97783.91
2023-11-23T05:26:57.304Z,97789.75
2023-11-23T05:27:59.029Z,97785.94
2023-11-23T05:29:00.899Z,97773.03
2023-11-23T05:30:02.885Z,97775.06
2023-11-23T05:31:05.018Z,97781.19
2023-11-23T05:32:07.372Z,97780.63
2023-11-23T05:33:09.854Z,97786.06
2023-11-23T05:34:11.678Z,97789.06
2023-11-23T05:35:14.318Z,97793.81
2023-11-23T05:36:16.728Z,97784.56
2023-11-23T05:37:18.507Z,97785.50
2023-11-23T05:38:20.310Z,97786.75
2023-11-23T05:39:22.137Z,97787.00
2023-11-23T05:40:24.008Z,97785.91
2023-11-23T05:41:25.833Z,97771.25
2023-11-23T05:42:31.834Z,97770.41
2023-11-23T05:43:33.719Z,97771.94
2023-11-23T05:44:35.399Z,97766.63
2023-11-23T05:45:37.162Z,97766.34
2023-11-23T05:46:39.037Z,97763.50
2023-11-23T05:47:41.012Z,97764.19
2023-11-23T05:48:42.953Z,97762.28
2023-11-23T05:49:44.804Z,97757.66
2023-11-23T05:50:46.557Z,97762.84
2023-11-23T05:51:51.561Z,97760.53
2023-11-23T05:52:53.347Z,97749.66
2023-11-23T05:53:55.175Z,97748.28
2023-11-23T05:54:57.426Z,97748.16
2023-11-23T05:55:59.516Z,97743.56
2023-11-23T05:57:01.270Z,97745.47
2023-11-23T05:58:03.191Z,97743.13
2023-11-23T05:59:05.231Z,97744.91
2023-11-23T06:00:07.889Z,97743.13
2023-11-23T06:01:12.419Z,97744.09
2023-11-23T06:02:14.623Z,97739.47
2023-11-23T06:03:16.528Z,97731.47
2023-11-23T06:04:18.832Z,97734.28
2023-11-23T06:05:21.335Z,97738.78
2023-11-23T06:06:24.214Z,97731.84
2023-11-23T06:07:26.034Z,97734.00
2023-11-23T06:08:28.441Z,97734.72
2023-11-23T06:09:31.474Z,97738.91
2023-11-23T06:10:36.017Z,97741.63
2023-11-23T06:11:37.758Z,97748.13
2023-11-23T06:12:39.592Z,97745.16
2023-11-23T06:13:43.035Z,97743.81
2023-11-23T06:14:45.752Z,97738.25
2023-11-23T06:15:47.546Z,97735.81
2023-11-23T06:16:49.258Z,97740.44
2023-11-23T06:18:01.701Z,97734.88
2023-11-23T06:19:10.900Z,97740.84
2023-11-23T06:20:14.081Z,97729.72
2023-11-23T06:21:15.935Z,97725.34
2023-11-23T06:22:17.660Z,97720.63
2023-11-23T06:23:19.577Z,97724.00
2023-11-23T06:24:21.517Z,97722.91
2023-11-23T06:25:24.679Z,97724.00
2023-11-23T06:26:27.981Z,97725.66
2023-11-23T06:27:31.888Z,97723.75
2023-11-23T06:28:33.748Z,97721.84
2023-11-23T06:29:35.480Z,97724.69
2023-11-23T06:30:37.249Z,97721.72
2023-11-23T06:31:39.087Z,97723.31
2023-11-23T06:32:41.005Z,97725.47
2023-11-23T06:33:42.845Z,97727.53
2023-11-23T06:34:45.288Z,97730.25
2023-11-23T06:35:47.086Z,97732.69
2023-11-23T06:36:51.752Z,97736.09
2023-11-23T06:37:54.260Z,97739.47
2023-11-23T06:38:56.795Z,97738.41
2023-11-23T06:39:58.736Z,97738.53
2023-11-23T06:41:01.244Z,97740.00
2023-11-23T06:42:03.192Z,97728.47
2023-11-23T06:43:05.232Z,97728.22
2023-11-23T06:44:07.636Z,97730.22
2023-11-23T06:45:10.238Z,97733.22
2023-11-23T06:46:11.972Z,97740.53
2023-11-23T06:47:13.663Z,97741.09
2023-11-23T06:48:15.539Z,97729.69
2023-11-23T06:49:17.298Z,97736.75
2023-11-23T06:50:19.054Z,97739.47
2023-11-23T06:51:21.112Z,97741.09
2023-11-23T06:52:23.071Z,97740.84
2023-11-23T06:53:24.838Z,97746.53
2023-11-23T06:54:26.698Z,97739.47
2023-11-23T06:55:28.744Z,97743.00
2023-11-23T06:56:30.510Z,97731.59
2023-11-23T06:57:32.424Z,97735.00
2023-11-23T06:58:34.551Z,97745.59
2023-11-23T06:59:37.331Z,97740.56
2023-11-23T07:00:40.514Z,97737.72
2023-11-23T07:01:42.503Z,97734.06
2023-11-23T07:02:44.341Z,97732.28
2023-11-23T07:03:46.807Z,97736.75
2023-11-23T07:04:48.583Z,97736.09
2023-11-23T07:05:51.093Z,97733.78
2023-11-23T07:06:53.016Z,97741.66
2023-11-23T07:07:55.166Z,97746.50
2023-11-23T07:08:58.643Z,97735.00
2023-11-23T07:10:00.392Z,97736.06
2023-11-23T07:11:02.606Z,97736.59
2023-11-23T07:12:04.641Z,97733.34
2023-11-23T07:13:06.521Z,97727.25
2023-11-23T07:14:08.533Z,97732.13
2023-11-23T07:15:11.533Z,97730.59
2023-11-23T07:16:14.153Z,97735.91
2023-11-23T07:17:15.938Z,97728.72
2023-11-23T07:18:19.522Z,97729.25
2023-11-23T07:19:21.398Z,97734.28
2023-11-23T07:20:23.742Z,97732.41
2023-11-23T07:21:25.911Z,97727.94
2023-11-23T07:22:27.718Z,97725.06
2023-11-23T07:23:29.549Z,97733.47
2023-11-23T07:24:31.308Z,97723.44
2023-11-23T07:25:33.402Z,97730.50
2023-11-23T07:26:35.403Z,97728.84
2023-11-23T07:27:38.345Z,97730.75
2023-11-23T07:28:40.215Z,97729.94
2023-11-23T07:29:42.278Z,97737.13
2023-11-23T07:30:44.558Z,97740.00
2023-11-23T07:31:47.923Z,97740.78
2023-11-23T07:32:49.827Z,97738.09
2023-11-23T07:33:52.150Z,97741.06
2023-11-23T07:34:54.193Z,97733.75
2023-11-23T07:35:56.905Z,97735.13
2023-11-23T07:36:58.651Z,97734.84
2023-11-23T07:38:01.796Z,97732.25
2023-11-23T07:39:04.280Z,97738.09
2023-11-23T07:40:15.115Z,97739.47
2023-11-23T07:41:19.397Z,97735.94
2023-11-23T07:42:21.242Z,97731.72
2023-11-23T07:43:23.089Z,97729.13
2023-11-23T07:44:25.318Z,97735.69
2023-11-23T07:45:27.191Z,97732.16
2023-11-23T07:46:29.480Z,97729.44
2023-11-23T07:47:31.347Z,97730.13
2023-11-23T07:48:33.234Z,97736.22
2023-11-23T07:49:35.053Z,97740.84
2023-11-23T07:50:38.506Z,97734.84
2023-11-23T07:51:40.820Z,97740.84
2023-11-23T07:52:46.472Z,97734.59
2023-11-23T07:53:48.876Z,97730.94
2023-11-23T07:54:51.228Z,97737.56
2023-11-23T07:55:53.188Z,97738.25
2023-11-23T07:56:55.130Z,97734.59
2023-11-23T07:57:57.475Z,97733.91
2023-11-23T07:59:00.253Z,97741.25
2023-11-23T08:00:02.282Z,97735.66
2023-11-23T08:01:04.222Z,97738.00
2023-11-23T08:02:06.268Z,97726.56
2023-11-23T08:03:08.490Z,97743.69
2023-11-23T08:04:12.980Z,97735.66
2023-11-23T08:05:15.121Z,97733.63
2023-11-23T08:06:18.064Z,97728.34
2023-11-23T08:07:21.276Z,97727.25
2023-11-23T08:08:23.121Z,97721.00
2023-11-23T08:09:25.197Z,97728.34
2023-11-23T08:10:26.990Z,97731.59
2023-11-23T08:11:29.873Z,97732.97
2023-11-23T08:12:33.661Z,97731.88
2023-11-23T08:13:36.348Z,97729.28
2023-11-23T08:14:40.733Z,97725.34
2023-11-23T08:15:42.598Z,97737.16
2023-11-23T08:16:44.831Z,97732.97
2023-11-23T08:17:54.506Z,97733.22
2023-11-23T08:19:06.367Z,97735.25
2023-11-23T08:20:09.587Z,97726.69
2023-11-23T08:21:13.152Z,97728.34
2023-11-23T08:22:16.358Z,97726.44
2023-11-23T08:23:18.167Z,97726.72
2023-11-23T08:24:19.988Z,97727.50
2023-11-23T08:25:21.744Z,97726.16
2023-11-23T08:26:23.495Z,97731.06
2023-11-23T08:27:25.546Z,97728.88
2023-11-23T08:28:27.430Z,97724.13
2023-11-23T08:29:31.317Z,97716.75
2023-11-23T08:30:33.681Z,97717.31
2023-11-23T08:31:35.539Z,97719.75
2023-11-23T08:32:37.341Z,97716.63
2023-11-23T08:33:39.178Z,97710.25
2023-11-23T08:34:43.204Z,97711.47
2023-11-23T08:35:46.605Z,97712.56
2023-11-23T08:36:48.423Z,97715.94
2023-11-23T08:37:50.152Z,97710.09
2023-11-23T08:38:52.046Z,97706.56
2023-11-23T08:39:53.915Z,97710.25
2023-11-23T08:40:55.711Z,97701.41
2023-11-23T08:41:57.400Z,97706.28
2023-11-23T08:42:59.289Z,97710.34
2023-11-23T08:44:05.552Z,97705.72
2023-11-23T08:45:08.012Z,97708.72
2023-11-23T08:46:09.908Z,97707.50
2023-11-23T08:47:11.745Z,97703.25
2023-11-23T08:48:15.101Z,97708.94
2023-11-23T08:49:16.983Z,97710.78
2023-11-23T08:50:19.228Z,97715.69
2023-11-23T08:51:20.995Z,97719.75
2023-11-23T08:52:23.182Z,97711.88
2023-11-23T08:53:25.750Z,97718.91
2023-11-23T08:54:27.596Z,97714.78
2023-11-23T08:55:29.584Z,97721.88
2023-11-23T08:56:31.833Z,97724.91
2023-11-23T08:57:34.068Z,97728.38
2023-11-23T08:58:35.794Z,97720.53
2023-11-23T08:59:38.908Z,97720.41
2023-11-23T09:00:42.994Z,97722.41
2023-11-23T09:01:46.563Z,97712.03
2023-11-23T09:02:51.750Z,97719.47
2023-11-23T09:03:54.473Z,97727.09
2023-11-23T09:04:57.428Z,97719.75
2023-11-23T09:05:59.941Z,97717.56
2023-11-23T09:07:02.280Z,97718.47
2023-11-23T09:08:08.080Z,97716.78
2023-11-23T09:09:09.855Z,97718.03
2023-11-23T09:10:11.731Z,97718.34
2023-11-23T09:11:13.707Z,97720.53
2023-11-23T09:12:15.603Z,97712.19
2023-11-23T09:13:17.539Z,97711.94
2023-11-23T09:14:19.909Z,97715.19
2023-11-23T09:15:24.067Z,97710.69
2023-11-23T09:16:27.250Z,97717.78
2023-11-23T09:17:28.987Z,97711.50
2023-11-23T09:18:30.881Z,97714.03
2023-11-23T09:19:33.465Z,97715.31
2023-11-23T09:20:35.234Z,97711.63
2023-11-23T09:21:37.328Z,97712.38
2023-11-23T09:22:39.077Z,97711.75
2023-11-23T09:23:41.336Z,97711.69
2023-11-23T09:24:43.939Z,97708.56
2023-11-23T09:25:45.838Z,97716.31
2023-11-23T09:26:48.987Z,97704.72
2023-11-23T09:27:51.677Z,97702.06
2023-11-23T09:28:53.540Z,97693.78
2023-11-23T09:29:56.211Z,97691.41
2023-11-23T09:30:57.916Z,97693.03
2023-11-23T09:32:00.416Z,97691.84
2023-11-23T09:33:02.308Z,97680.69
2023-11-23T09:34:04.971Z,97685.78
2023-11-23T09:35:09.406Z,97690.13
2023-11-23T09:36:13.151Z,97684.22
2023-11-23T09:37:14.980Z,97681.72
2023-11-23T09:38:16.786Z,97683.56
2023-11-23T09:39:23.395Z,97685.84
2023-11-23T09:40:27.461Z,97681.63
2023-11-23T09:41:35.766Z,97679.56
2023-11-23T09:42:38.791Z,97671.09
2023-11-23T09:43:40.577Z,97676.97
2023-11-23T09:44:43.087Z,97680.69
2023-11-23T09:45:45.225Z,97680.41
2023-11-23T09:46:47.940Z,97673.56
2023-11-23T09:47:50.317Z,97671.78
2023-11-23T09:48:52.661Z,97663.88
2023-11-23T09:49:55.886Z,97663.28
2023-11-23T09:50:58.071Z,97660.88
2023-11-23T09:52:02.555Z,97650.72
2023-11-23T09:53:04.525Z,97645.59
2023-11-23T09:54:07.070Z,97643.94
2023-11-23T09:55:10.244Z,97646.44
2023-11-23T09:56:12.817Z,97639.69
2023-11-23T09:57:14.684Z,97637.09
2023-11-23T09:58:17.234Z,97638.16
2023-11-23T09:59:19.024Z,97630.47
2023-11-23T10:00:22.770Z,97628.53
2023-11-23T10:01:28.760Z,97629.72
2023-11-23T10:02:34.355Z,97633.63
2023-11-23T10:03:36.367Z,97624.56
2023-11-23T10:04:38.104Z,97616.63
2023-11-23T10:05:40.713Z,97609.84
2023-11-23T10:06:42.635Z,97615.38
2023-11-23T10:07:45.160Z,97612.66
2023-11-23T10:08:47.389Z,97612.94
2023-11-23T10:09:49.437Z,97605.69
2023-11-23T10:10:52.999Z,97608.16
2023-11-23T10:11:57.976Z,97602.84
2023-11-23T10:13:00.955Z,97597.28
2023-11-23T10:14:02.735Z,97592.78
2023-11-23T10:15:08.297Z,97589.53
2023-11-23T10:16:12.659Z,97590.03
2023-11-23T10:17:14.554Z,97581.09
2023-11-23T10:18:16.425Z,97584.19
2023-11-23T10:19:22.195Z,97590.03
2023-11-23T10:20:23.996Z,97576.25
2023-11-23T10:21:26.038Z,97572.84
2023-11-23T10:22:27.825Z,97571.56
2023-11-23T10:23:29.955Z,97567.47
2023-11-23T10:24:32.242Z,97565.88
2023-11-23T10:25:34.889Z,97562.47
2023-11-23T10:26:39.446Z,97556.63
2023-11-23T10:27:41.447Z,97552.56
2023-11-23T10:28:43.596Z,97551.63
2023-11-23T10:29:45.341Z,97550.97
2023-11-23T10:30:47.200Z,97548.03
2023-11-23T10:31:49.308Z,97549.81
2023-11-23T10:32:52.210Z,97553.69
2023-11-23T10:33:54.356Z,97545.88
2023-11-23T10:34:57.908Z,97541.94
2023-11-23T10:36:02.344Z,97544.56
2023-11-23T10:37:06.204Z,97541.50
2023-11-23T10:38:09.076Z,97542.44
2023-11-23T10:39:14.059Z,97541.13
2023-11-23T10:40:16.487Z,97543.53
2023-11-23T10:41:18.683Z,97540.91
2023-11-23T10:42:20.854Z,97537.66
2023-11-23T10:43:23.131Z,97539.09
2023-11-23T10:44:25.049Z,97533.56
2023-11-23T10:45:29.128Z,97535.19
2023-11-23T10:46:32.166Z,97531.63
2023-11-23T10:47:36.760Z,97535.69
2023-11-23T10:48:38.880Z,97528.06
2023-11-23T10:49:43.758Z,97531.78
2023-11-23T10:50:45.711Z,97529.22
2023-11-23T10:51:48.017Z,97530.34
2023-11-23T10:52:50.138Z,97523.19
2023-11-23T10:53:51.976Z,97523.34
2023-11-23T10:54:53.746Z,97520.25
2023-11-23T10:55:58.622Z,97520.91
2023-11-23T10:57:02.557Z,97516.63
2023-11-23T10:58:10.271Z,97515.94
2023-11-23T10:59:19.345Z,97514.72
2023-11-23T11:00:26.215Z,97517.75
2023-11-23T11:01:28.941Z,97512.41
2023-11-23T11:02:30.941Z,97504.75
2023-11-23T11:03:33.422Z,97507.25
2023-11-23T11:04:35.715Z,97511.34
2023-11-23T11:05:38.299Z,97508.56
2023-11-23T11:06:40.926Z,97506.72
2023-11-23T11:07:42.625Z,97500.94
2023-11-23T11:08:51.768Z,97496.56
2023-11-23T11:10:02.310Z,97497.63
2023-11-23T11:11:08.962Z,97495.00
2023-11-23T11:12:14.520Z,97488.16
2023-11-23T11:13:16.982Z,97483.84
2023-11-23T11:14:19.173Z,97478.97
2023-11-23T11:15:22.759Z,97483.31
2023-11-23T11:16:32.429Z,97476.38
2023-11-23T11:17:38.151Z,97476.16
2023-11-23T11:18:40.422Z,97469.13
2023-11-23T11:19:49.206Z,97468.75
2023-11-23T11:21:09.857Z,97462.34
2023-11-23T11:22:15.624Z,97463.53
2023-11-23T11:23:17.658Z,97469.53
2023-11-23T11:24:23.051Z,97468.22
2023-11-23T11:25:39.862Z,97465.78
2023-11-23T11:26:44.319Z,97449.47
2023-11-23T11:27:47.057Z,97453.50
2023-11-23T11:28:58.936Z,97449.63
2023-11-23T11:30:04.828Z,97456.16
2023-11-23T11:31:07.612Z,97449.00
2023-11-23T11:32:10.178Z,97442.28
2023-11-23T11:33:15.875Z,97447.94
2023-11-23T11:34:18.953Z,97447.56
2023-11-23T11:35:21.956Z,97446.53
2023-11-23T11:36:25.743Z,97447.38
2023-11-23T11:37:28.828Z,97440.47
2023-11-23T11:38:31.225Z,97441.38
2023-11-23T11:39:34.073Z,97439.69
2023-11-23T11:40:36.794Z,97440.22
2023-11-23T11:42:42.282Z,97433.59
2023-11-23T11:43:45.783Z,97432.97
2023-11-23T11:44:47.726Z,97432.16
2023-11-23T11:45:50.706Z,97429.56
2023-11-23T11:46:53.572Z,97425.38
2023-11-23T11:47:58.816Z,97421.75
2023-11-23T11:49:01.837Z,97418.53
2023-11-23T11:51:06.995Z,97420.50
2023-11-23T11:52:13.902Z,97419.22
2023-11-23T11:53:15.697Z,97417.13
2023-11-23T11:54:19.400Z,97415.88
2023-11-23T11:55:21.143Z,97408.28
2023-11-23T11:56:25.762Z,97409.88
2023-11-23T11:57:28.301Z,97405.03
2023-11-23T11:58:30.053Z,97397.03
2023-11-23T11:59:32.479Z,97391.66
2023-11-23T12:00:35.963Z,97391.31
2023-11-23T12:01:37.924Z,97392.75
2023-11-23T12:02:40.776Z,97384.41
2023-11-23T12:03:42.625Z,97379.66
2023-11-23T12:04:44.639Z,97381.91
2023-11-23T12:05:49.792Z,97377.97
2023-11-23T12:06:51.553Z,97369.00
2023-11-23T12:07:54.606Z,97373.47
2023-11-23T12:08:56.385Z,97374.72
2023-11-23T12:09:58.393Z,97373.09
2023-11-23T12:11:00.241Z,97364.66
2023-11-23T12:12:06.727Z,97368.53
2023-11-23T12:13:15.925Z,97366.56
2023-11-23T12:14:17.936Z,97366.31
2023-11-23T12:15:20.712Z,97364.31
2023-11-23T12:16:23.289Z,97363.16
2023-11-23T12:17:25.162Z,97356.13
2023-11-23T12:18:36.904Z,97352.72